sensor_id;sensor_type;location;lat;lon;timestamp;pressure;altitude;pressure_sealevel;temperature;humidity
68822;BME280;55834;50.870;4.606;2023-02-26T00:01:34;101135.59;;;0.00;47.93
68822;BME280;55834;50.870;4.606;2023-02-26T00:04:02;101141.25;;;-0.19;46.98
68822;BME280;55834;50.870;4.606;2023-02-26T00:06:30;101136.00;;;-0.60;47.82
68822;BME280;55834;50.870;4.606;2023-02-26T00:08:56;101144.97;;;-0.46;47.75
68822;BME280;55834;50.870;4.606;2023-02-26T00:11:21;101140.88;;;-0.36;48.56
68822;BME280;55834;50.870;4.606;2023-02-26T00:13:47;101138.41;;;-0.30;47.77
68822;BME280;55834;50.870;4.606;2023-02-26T00:16:30;101138.72;;;-0.54;49.09
68822;BME280;55834;50.870;4.606;2023-02-26T00:18:58;101147.00;;;-0.32;48.28
68822;BME280;55834;50.870;4.606;2023-02-26T00:21:29;101142.19;;;-0.53;48.93
68822;BME280;55834;50.870;4.606;2023-02-26T00:23:56;101141.97;;;-0.62;49.46
68822;BME280;55834;50.870;4.606;2023-02-26T00:26:23;101146.13;;;-0.69;49.55
68822;BME280;55834;50.870;4.606;2023-02-26T00:28:50;101145.03;;;-0.79;49.63
68822;BME280;55834;50.870;4.606;2023-02-26T00:31:17;101152.19;;;-1.03;51.05
68822;BME280;55834;50.870;4.606;2023-02-26T00:33:43;101163.00;;;-1.20;51.22
68822;BME280;55834;50.870;4.606;2023-02-26T00:38:35;101163.31;;;-1.39;52.41
68822;BME280;55834;50.870;4.606;2023-02-26T00:41:00;101171.78;;;-1.13;52.09
68822;BME280;55834;50.870;4.606;2023-02-26T00:43:26;101160.56;;;-1.45;52.88
68822;BME280;55834;50.870;4.606;2023-02-26T00:51:15;101162.31;;;-0.78;51.04
68822;BME280;55834;50.870;4.606;2023-02-26T00:53:51;101162.88;;;-0.91;51.67
68822;BME280;55834;50.870;4.606;2023-02-26T00:56:19;101166.78;;;-0.72;50.56
68822;BME280;55834;50.870;4.606;2023-02-26T00:58:44;101158.22;;;-0.33;50.11
68822;BME280;55834;50.870;4.606;2023-02-26T01:01:09;101154.81;;;-0.31;49.10
68822;BME280;55834;50.870;4.606;2023-02-26T01:03:35;101164.53;;;-0.95;51.53
68822;BME280;55834;50.870;4.606;2023-02-26T01:06:00;101163.72;;;-1.87;53.47
68822;BME280;55834;50.870;4.606;2023-02-26T01:08:31;101178.84;;;-1.41;53.05
68822;BME280;55834;50.870;4.606;2023-02-26T01:10:58;101177.94;;;-1.41;53.80
68822;BME280;55834;50.870;4.606;2023-02-26T01:13:24;101176.69;;;-1.24;52.04
68822;BME280;55834;50.870;4.606;2023-02-26T01:15:55;101171.41;;;-0.95;51.80
68822;BME280;55834;50.870;4.606;2023-02-26T01:18:27;101180.31;;;-0.51;51.48
68822;BME280;55834;50.870;4.606;2023-02-26T01:21:02;101174.53;;;-0.37;51.41
68822;BME280;55834;50.870;4.606;2023-02-26T01:23:31;101171.09;;;-0.73;50.21
68822;BME280;55834;50.870;4.606;2023-02-26T01:26:18;101179.88;;;-1.01;52.78
68822;BME280;55834;50.870;4.606;2023-02-26T01:28:45;101176.47;;;-1.00;52.14
68822;BME280;55834;50.870;4.606;2023-02-26T01:31:37;101176.19;;;-0.77;51.59
68822;BME280;55834;50.870;4.606;2023-02-26T01:34:46;101178.81;;;-0.76;52.21
68822;BME280;55834;50.870;4.606;2023-02-26T01:37:21;101181.69;;;-0.63;50.93
68822;BME280;55834;50.870;4.606;2023-02-26T01:42:31;101183.03;;;-2.05;56.29
68822;BME280;55834;50.870;4.606;2023-02-26T01:45:10;101180.00;;;-2.18;56.03
68822;BME280;55834;50.870;4.606;2023-02-26T01:50:15;101186.88;;;-2.46;56.29
68822;BME280;55834;50.870;4.606;2023-02-26T01:57:42;101185.94;;;-3.01;60.03
68822;BME280;55834;50.870;4.606;2023-02-26T02:00:09;101188.50;;;-2.77;58.49
68822;BME280;55834;50.870;4.606;2023-02-26T02:02:35;101198.44;;;-3.13;60.11
68822;BME280;55834;50.870;4.606;2023-02-26T02:05:07;101199.97;;;-3.18;60.27
68822;BME280;55834;50.870;4.606;2023-02-26T02:07:35;101199.28;;;-3.14;60.23
68822;BME280;55834;50.870;4.606;2023-02-26T02:10:00;101196.44;;;-2.45;57.57
68822;BME280;55834;50.870;4.606;2023-02-26T02:12:56;101192.97;;;-2.17;56.57
68822;BME280;55834;50.870;4.606;2023-02-26T02:15:39;101194.50;;;-1.66;56.09
68822;BME280;55834;50.870;4.606;2023-02-26T02:23:39;101202.59;;;-2.92;59.90
68822;BME280;55834;50.870;4.606;2023-02-26T02:31:45;101201.34;;;-2.78;59.20
68822;BME280;55834;50.870;4.606;2023-02-26T02:34:14;101215.41;;;-2.70;57.76
68822;BME280;55834;50.870;4.606;2023-02-26T02:36:50;101210.59;;;-3.10;60.46
68822;BME280;55834;50.870;4.606;2023-02-26T02:39:23;101216.28;;;-2.44;58.64
68822;BME280;55834;50.870;4.606;2023-02-26T02:41:56;101213.34;;;-2.80;58.79
68822;BME280;55834;50.870;4.606;2023-02-26T02:44:25;101216.69;;;-3.08;60.57
68822;BME280;55834;50.870;4.606;2023-02-26T02:46:53;101216.81;;;-2.80;59.12
68822;BME280;55834;50.870;4.606;2023-02-26T02:49:43;101225.69;;;-3.21;60.63
68822;BME280;55834;50.870;4.606;2023-02-26T02:52:15;101234.16;;;-3.49;61.45
68822;BME280;55834;50.870;4.606;2023-02-26T02:54:54;101225.91;;;-2.91;59.22
68822;BME280;55834;50.870;4.606;2023-02-26T02:57:29;101223.34;;;-2.11;57.95
68822;BME280;55834;50.870;4.606;2023-02-26T03:00:02;101235.06;;;-2.22;58.59
68822;BME280;55834;50.870;4.606;2023-02-26T03:02:44;101232.78;;;-1.85;57.01
68822;BME280;55834;50.870;4.606;2023-02-26T03:05:12;101240.34;;;-1.91;56.21
68822;BME280;55834;50.870;4.606;2023-02-26T03:07:58;101249.06;;;-1.89;56.85
68822;BME280;55834;50.870;4.606;2023-02-26T03:10:26;101253.03;;;-1.41;55.31
68822;BME280;55834;50.870;4.606;2023-02-26T03:12:51;101251.97;;;-1.78;55.75
68822;BME280;55834;50.870;4.606;2023-02-26T03:15:25;101259.53;;;-2.13;56.86
68822;BME280;55834;50.870;4.606;2023-02-26T03:17:59;101261.88;;;-2.46;58.21
68822;BME280;55834;50.870;4.606;2023-02-26T03:20:37;101254.81;;;-3.01;60.60
68822;BME280;55834;50.870;4.606;2023-02-26T03:23:16;101261.63;;;-3.51;62.00
68822;BME280;55834;50.870;4.606;2023-02-26T03:25:56;101256.41;;;-2.81;59.95
68822;BME280;55834;50.870;4.606;2023-02-26T03:28:44;101254.56;;;-2.59;59.65
68822;BME280;55834;50.870;4.606;2023-02-26T03:39:04;101262.50;;;-3.27;61.04
68822;BME280;55834;50.870;4.606;2023-02-26T03:41:37;101262.81;;;-2.69;59.64
68822;BME280;55834;50.870;4.606;2023-02-26T03:44:13;101266.53;;;-2.61;58.88
68822;BME280;55834;50.870;4.606;2023-02-26T03:46:47;101271.16;;;-3.02;59.95
68822;BME280;55834;50.870;4.606;2023-02-26T03:49:21;101277.09;;;-2.55;59.68
68822;BME280;55834;50.870;4.606;2023-02-26T03:51:50;101279.16;;;-1.92;56.72
68822;BME280;55834;50.870;4.606;2023-02-26T03:54:22;101281.78;;;-1.62;56.96
68822;BME280;55834;50.870;4.606;2023-02-26T03:56:50;101293.34;;;-3.31;59.96
68822;BME280;55834;50.870;4.606;2023-02-26T03:59:16;101299.03;;;-3.40;61.22
68822;BME280;55834;50.870;4.606;2023-02-26T04:02:02;101297.72;;;-2.82;60.15
68822;BME280;55834;50.870;4.606;2023-02-26T04:04:50;101305.50;;;-2.57;58.25
68822;BME280;55834;50.870;4.606;2023-02-26T04:07:18;101312.94;;;-3.14;58.81
68822;BME280;55834;50.870;4.606;2023-02-26T04:09:48;101294.13;;;-2.36;58.26
68822;BME280;55834;50.870;4.606;2023-02-26T04:12:15;101301.34;;;-1.72;56.01
68822;BME280;55834;50.870;4.606;2023-02-26T04:14:44;101321.03;;;-2.04;55.67
68822;BME280;55834;50.870;4.606;2023-02-26T04:17:09;101327.22;;;-3.00;58.67
68822;BME280;55834;50.870;4.606;2023-02-26T04:19:35;101324.72;;;-3.21;60.13
68822;BME280;55834;50.870;4.606;2023-02-26T04:22:00;101326.38;;;-3.23;60.04
68822;BME280;55834;50.870;4.606;2023-02-26T04:24:25;101330.56;;;-2.78;59.06
68822;BME280;55834;50.870;4.606;2023-02-26T04:26:51;101329.50;;;-3.31;60.41
68822;BME280;55834;50.870;4.606;2023-02-26T04:29:16;101337.88;;;-3.59;60.82
68822;BME280;55834;50.870;4.606;2023-02-26T04:31:41;101347.38;;;-3.58;60.75
68822;BME280;55834;50.870;4.606;2023-02-26T04:34:07;101339.09;;;-3.05;59.16
68822;BME280;55834;50.870;4.606;2023-02-26T04:36:32;101337.06;;;-2.40;55.96
68822;BME280;55834;50.870;4.606;2023-02-26T04:38:59;101339.25;;;-2.52;56.81
68822;BME280;55834;50.870;4.606;2023-02-26T04:41:24;101339.63;;;-3.13;59.20
68822;BME280;55834;50.870;4.606;2023-02-26T04:43:49;101334.44;;;-2.91;57.81
68822;BME280;55834;50.870;4.606;2023-02-26T04:46:15;101345.38;;;-3.21;57.91
68822;BME280;55834;50.870;4.606;2023-02-26T04:48:40;101348.56;;;-3.05;57.74
68822;BME280;55834;50.870;4.606;2023-02-26T04:51:05;101345.88;;;-3.31;59.20
68822;BME280;55834;50.870;4.606;2023-02-26T04:53:31;101343.31;;;-3.07;58.83
68822;BME280;55834;50.870;4.606;2023-02-26T04:55:56;101357.47;;;-3.42;59.30
68822;BME280;55834;50.870;4.606;2023-02-26T04:58:21;101350.66;;;-2.45;56.11
68822;BME280;55834;50.870;4.606;2023-02-26T05:00:49;101366.22;;;-3.39;58.46
68822;BME280;55834;50.870;4.606;2023-02-26T05:03:14;101347.91;;;-2.76;57.53
68822;BME280;55834;50.870;4.606;2023-02-26T05:05:40;101363.19;;;-2.82;56.38
68822;BME280;55834;50.870;4.606;2023-02-26T05:08:05;101376.47;;;-4.04;59.82
68822;BME280;55834;50.870;4.606;2023-02-26T05:10:30;101366.56;;;-3.29;56.86
68822;BME280;55834;50.870;4.606;2023-02-26T05:12:56;101372.84;;;-3.45;58.04
68822;BME280;55834;50.870;4.606;2023-02-26T05:15:21;101373.19;;;-3.58;58.00
68822;BME280;55834;50.870;4.606;2023-02-26T05:17:46;101371.03;;;-3.25;57.62
68822;BME280;55834;50.870;4.606;2023-02-26T05:20:12;101369.53;;;-2.74;56.30
68822;BME280;55834;50.870;4.606;2023-02-26T05:22:38;101363.13;;;-2.59;55.73
68822;BME280;55834;50.870;4.606;2023-02-26T05:25:06;101375.16;;;-3.08;55.93
68822;BME280;55834;50.870;4.606;2023-02-26T05:27:32;101383.00;;;-3.27;57.17
68822;BME280;55834;50.870;4.606;2023-02-26T05:29:57;101384.94;;;-3.22;56.69
68822;BME280;55834;50.870;4.606;2023-02-26T05:32:22;101390.22;;;-3.64;58.76
68822;BME280;55834;50.870;4.606;2023-02-26T05:34:48;101394.84;;;-3.55;58.03
68822;BME280;55834;50.870;4.606;2023-02-26T05:37:13;101399.69;;;-3.63;58.37
68822;BME280;55834;50.870;4.606;2023-02-26T05:39:38;101403.00;;;-3.44;57.86
68822;BME280;55834;50.870;4.606;2023-02-26T05:42:06;101400.91;;;-3.54;57.27
68822;BME280;55834;50.870;4.606;2023-02-26T05:44:31;101405.69;;;-3.20;57.31
68822;BME280;55834;50.870;4.606;2023-02-26T05:46:56;101405.81;;;-2.71;54.96
68822;BME280;55834;50.870;4.606;2023-02-26T05:49:22;101421.97;;;-4.07;59.28
68822;BME280;55834;50.870;4.606;2023-02-26T05:51:47;101409.31;;;-3.37;57.30
68822;BME280;55834;50.870;4.606;2023-02-26T05:54:12;101423.59;;;-3.02;56.42
68822;BME280;55834;50.870;4.606;2023-02-26T05:56:38;101418.84;;;-2.67;55.10
68822;BME280;55834;50.870;4.606;2023-02-26T05:59:04;101418.22;;;-2.60;54.47
68822;BME280;55834;50.870;4.606;2023-02-26T06:01:29;101426.06;;;-3.05;55.10
68822;BME280;55834;50.870;4.606;2023-02-26T06:03:55;101433.06;;;-2.79;55.17
68822;BME280;55834;50.870;4.606;2023-02-26T06:06:20;101441.50;;;-3.50;57.48
68822;BME280;55834;50.870;4.606;2023-02-26T06:08:46;101448.44;;;-3.27;55.97
68822;BME280;55834;50.870;4.606;2023-02-26T06:11:12;101450.81;;;-3.54;57.66
68822;BME280;55834;50.870;4.606;2023-02-26T06:13:37;101456.22;;;-3.90;58.20
68822;BME280;55834;50.870;4.606;2023-02-26T06:16:03;101460.06;;;-3.59;58.31
68822;BME280;55834;50.870;4.606;2023-02-26T06:18:28;101459.69;;;-3.47;57.25
68822;BME280;55834;50.870;4.606;2023-02-26T06:20:54;101462.91;;;-4.14;58.78
68822;BME280;55834;50.870;4.606;2023-02-26T06:23:19;101461.81;;;-4.00;59.42
68822;BME280;55834;50.870;4.606;2023-02-26T06:25:45;101467.00;;;-3.58;56.71
68822;BME280;55834;50.870;4.606;2023-02-26T06:28:10;101471.34;;;-4.18;59.32
68822;BME280;55834;50.870;4.606;2023-02-26T06:30:35;101467.78;;;-4.01;59.27
68822;BME280;55834;50.870;4.606;2023-02-26T06:33:01;101479.94;;;-4.76;61.02
68822;BME280;55834;50.870;4.606;2023-02-26T06:35:26;101479.13;;;-4.56;60.38
68822;BME280;55834;50.870;4.606;2023-02-26T06:37:55;101484.47;;;-4.88;62.51
68822;BME280;55834;50.870;4.606;2023-02-26T06:40:21;101478.19;;;-3.36;57.09
68822;BME280;55834;50.870;4.606;2023-02-26T06:42:47;101485.22;;;-4.54;59.98
68822;BME280;55834;50.870;4.606;2023-02-26T06:45:13;101485.38;;;-4.50;59.73
68822;BME280;55834;50.870;4.606;2023-02-26T06:47:39;101489.56;;;-4.14;59.44
68822;BME280;55834;50.870;4.606;2023-02-26T06:50:05;101492.06;;;-4.54;60.51
68822;BME280;55834;50.870;4.606;2023-02-26T06:52:30;101494.34;;;-4.23;59.09
68822;BME280;55834;50.870;4.606;2023-02-26T06:54:56;101500.50;;;-4.58;60.05
68822;BME280;55834;50.870;4.606;2023-02-26T06:57:21;101498.50;;;-3.67;57.97
68822;BME280;55834;50.870;4.606;2023-02-26T06:59:47;101507.03;;;-3.26;55.54
68822;BME280;55834;50.870;4.606;2023-02-26T07:02:17;101518.63;;;-3.58;56.09
68822;BME280;55834;50.870;4.606;2023-02-26T07:04:43;101519.03;;;-3.89;58.40
68822;BME280;55834;50.870;4.606;2023-02-26T07:07:08;101518.97;;;-4.30;59.06
68822;BME280;55834;50.870;4.606;2023-02-26T07:09:33;101524.78;;;-4.71;59.86
68822;BME280;55834;50.870;4.606;2023-02-26T07:11:59;101528.25;;;-3.75;58.48
68822;BME280;55834;50.870;4.606;2023-02-26T07:14:24;101521.53;;;-3.50;56.17
68822;BME280;55834;50.870;4.606;2023-02-26T07:16:50;101529.13;;;-3.53;55.91
68822;BME280;55834;50.870;4.606;2023-02-26T07:19:15;101545.13;;;-4.40;58.02
68822;BME280;55834;50.870;4.606;2023-02-26T07:21:40;101530.09;;;-3.30;56.09
68822;BME280;55834;50.870;4.606;2023-02-26T07:24:06;101527.06;;;-3.41;55.86
68822;BME280;55834;50.870;4.606;2023-02-26T07:26:31;101539.72;;;-3.47;55.35
68822;BME280;55834;50.870;4.606;2023-02-26T07:28:57;101556.19;;;-2.81;53.77
68822;BME280;55834;50.870;4.606;2023-02-26T07:31:22;101559.03;;;-2.96;54.18
68822;BME280;55834;50.870;4.606;2023-02-26T07:33:48;101562.66;;;-3.13;54.48
68822;BME280;55834;50.870;4.606;2023-02-26T07:36:13;101563.56;;;-3.53;55.42
68822;BME280;55834;50.870;4.606;2023-02-26T07:38:40;101572.81;;;-3.98;57.17
68822;BME280;55834;50.870;4.606;2023-02-26T07:41:05;101571.63;;;-3.86;55.05
68822;BME280;55834;50.870;4.606;2023-02-26T07:43:31;101571.34;;;-2.90;53.64
68822;BME280;55834;50.870;4.606;2023-02-26T07:45:56;101579.03;;;-3.74;55.79
68822;BME280;55834;50.870;4.606;2023-02-26T07:48:24;101568.91;;;-3.29;55.72
68822;BME280;55834;50.870;4.606;2023-02-26T07:50:53;101580.03;;;-2.88;54.13
68822;BME280;55834;50.870;4.606;2023-02-26T07:53:19;101574.63;;;-2.72;52.98
68822;BME280;55834;50.870;4.606;2023-02-26T07:55:45;101591.88;;;-3.75;55.85
68822;BME280;55834;50.870;4.606;2023-02-26T07:58:10;101596.81;;;-3.60;56.38
68822;BME280;55834;50.870;4.606;2023-02-26T08:00:35;101602.16;;;-2.74;52.80
68822;BME280;55834;50.870;4.606;2023-02-26T08:03:01;101595.97;;;-2.55;53.38
68822;BME280;55834;50.870;4.606;2023-02-26T08:05:26;101599.88;;;-2.21;52.15
68822;BME280;55834;50.870;4.606;2023-02-26T08:07:51;101608.06;;;-2.76;52.67
68822;BME280;55834;50.870;4.606;2023-02-26T08:10:17;101614.72;;;-2.60;53.01
68822;BME280;55834;50.870;4.606;2023-02-26T08:12:42;101601.22;;;-2.97;54.21
68822;BME280;55834;50.870;4.606;2023-02-26T08:15:08;101605.38;;;-2.34;51.49
68822;BME280;55834;50.870;4.606;2023-02-26T08:17:34;101601.34;;;-2.94;52.90
68822;BME280;55834;50.870;4.606;2023-02-26T08:20:00;101607.44;;;-2.03;51.56
68822;BME280;55834;50.870;4.606;2023-02-26T08:22:25;101611.22;;;-2.40;50.75
68822;BME280;55834;50.870;4.606;2023-02-26T08:24:51;101605.44;;;-3.20;53.06
68822;BME280;55834;50.870;4.606;2023-02-26T08:27:16;101612.97;;;-3.24;54.73
68822;BME280;55834;50.870;4.606;2023-02-26T08:29:43;101611.91;;;-2.66;53.94
68822;BME280;55834;50.870;4.606;2023-02-26T08:32:10;101618.38;;;-2.55;54.04
68822;BME280;55834;50.870;4.606;2023-02-26T08:34:36;101636.59;;;-2.52;53.19
68822;BME280;55834;50.870;4.606;2023-02-26T08:37:01;101615.59;;;-1.19;51.08
68822;BME280;55834;50.870;4.606;2023-02-26T08:39:26;101631.03;;;-1.95;51.11
68822;BME280;55834;50.870;4.606;2023-02-26T08:41:52;101648.78;;;-2.27;51.54
68822;BME280;55834;50.870;4.606;2023-02-26T08:44:17;101648.38;;;-2.38;52.63
68822;BME280;55834;50.870;4.606;2023-02-26T08:46:42;101640.84;;;-2.32;52.23
68822;BME280;55834;50.870;4.606;2023-02-26T08:49:08;101630.84;;;-1.02;49.28
68822;BME280;55834;50.870;4.606;2023-02-26T08:51:33;101650.00;;;-2.40;51.42
68822;BME280;55834;50.870;4.606;2023-02-26T08:53:59;101657.34;;;-2.28;51.71
68822;BME280;55834;50.870;4.606;2023-02-26T08:56:24;101643.19;;;-1.21;49.48
68822;BME280;55834;50.870;4.606;2023-02-26T08:58:51;101654.59;;;-1.88;50.41
68822;BME280;55834;50.870;4.606;2023-02-26T09:01:16;101669.03;;;-1.70;50.62
68822;BME280;55834;50.870;4.606;2023-02-26T09:03:41;101661.06;;;-1.28;49.70
68822;BME280;55834;50.870;4.606;2023-02-26T09:06:07;101671.28;;;-1.07;47.83
68822;BME280;55834;50.870;4.606;2023-02-26T09:08:32;101668.41;;;-1.15;48.11
68822;BME280;55834;50.870;4.606;2023-02-26T09:10:59;101681.19;;;-2.14;49.03
68822;BME280;55834;50.870;4.606;2023-02-26T09:13:25;101679.03;;;-1.57;49.71
68822;BME280;55834;50.870;4.606;2023-02-26T09:15:51;101685.06;;;-2.03;50.59
68822;BME280;55834;50.870;4.606;2023-02-26T09:18:16;101682.69;;;-1.52;49.92
68822;BME280;55834;50.870;4.606;2023-02-26T09:20:43;101681.38;;;-1.39;48.09
68822;BME280;55834;50.870;4.606;2023-02-26T09:23:08;101690.63;;;-2.37;52.48
68822;BME280;55834;50.870;4.606;2023-02-26T09:25:34;101682.94;;;-1.20;49.86
68822;BME280;55834;50.870;4.606;2023-02-26T09:27:59;101687.63;;;-1.34;50.16
68822;BME280;55834;50.870;4.606;2023-02-26T09:30:25;101683.50;;;-0.78;48.89
68822;BME280;55834;50.870;4.606;2023-02-26T09:32:52;101693.41;;;-1.17;48.46
68822;BME280;55834;50.870;4.606;2023-02-26T09:35:18;101687.59;;;-0.05;45.70
68822;BME280;55834;50.870;4.606;2023-02-26T09:37:43;101690.16;;;-0.33;46.12
68822;BME280;55834;50.870;4.606;2023-02-26T09:40:22;101716.59;;;-1.44;49.20
68822;BME280;55834;50.870;4.606;2023-02-26T09:45:33;101705.00;;;-1.55;48.33
68822;BME280;55834;50.870;4.606;2023-02-26T09:48:03;101711.47;;;-0.95;46.88
68822;BME280;55834;50.870;4.606;2023-02-26T09:53:11;101711.59;;;0.17;44.31
68822;BME280;55834;50.870;4.606;2023-02-26T09:55:45;101711.34;;;0.09;44.81
68822;BME280;55834;50.870;4.606;2023-02-26T09:58:26;101735.19;;;-1.08;46.60
68822;BME280;55834;50.870;4.606;2023-02-26T10:12:13;101737.03;;;-2.19;46.44
68822;BME280;55834;50.870;4.606;2023-02-26T10:17:40;101738.34;;;-1.17;45.01
68822;BME280;55834;50.870;4.606;2023-02-26T10:20:17;101741.09;;;-1.12;44.82
68822;BME280;55834;50.870;4.606;2023-02-26T10:23:22;101728.72;;;-0.44;42.46
68822;BME280;55834;50.870;4.606;2023-02-26T10:25:58;101743.88;;;-0.82;43.94
68822;BME280;55834;50.870;4.606;2023-02-26T10:31:02;101748.28;;;-0.79;43.42
68822;BME280;55834;50.870;4.606;2023-02-26T10:34:14;101754.94;;;-0.62;43.02
68822;BME280;55834;50.870;4.606;2023-02-26T10:39:31;101744.34;;;-0.94;42.66
68822;BME280;55834;50.870;4.606;2023-02-26T10:42:09;101739.00;;;-0.47;42.33
68822;BME280;55834;50.870;4.606;2023-02-26T10:58:14;101755.97;;;1.15;40.83
68822;BME280;55834;50.870;4.606;2023-02-26T11:00:45;101757.00;;;1.20;40.22
68822;BME280;55834;50.870;4.606;2023-02-26T11:03:20;101760.56;;;1.58;37.99
68822;BME280;55834;50.870;4.606;2023-02-26T11:05:46;101762.16;;;2.26;35.61
68822;BME280;55834;50.870;4.606;2023-02-26T11:08:41;101760.41;;;1.89;38.71
68822;BME280;55834;50.870;4.606;2023-02-26T11:11:07;101765.78;;;2.73;37.06
68822;BME280;55834;50.870;4.606;2023-02-26T11:13:36;101767.69;;;2.40;35.61
68822;BME280;55834;50.870;4.606;2023-02-26T11:16:07;101778.03;;;2.78;35.95
68822;BME280;55834;50.870;4.606;2023-02-26T11:18:43;101774.69;;;2.42;34.12
68822;BME280;55834;50.870;4.606;2023-02-26T11:21:33;101777.56;;;1.44;35.87
68822;BME280;55834;50.870;4.606;2023-02-26T11:24:44;101766.59;;;2.71;35.19
68822;BME280;55834;50.870;4.606;2023-02-26T11:27:14;101764.69;;;2.64;35.16
68822;BME280;55834;50.870;4.606;2023-02-26T11:29:45;101780.72;;;2.40;36.56
68822;BME280;55834;50.870;4.606;2023-02-26T11:32:19;101762.94;;;1.84;37.02
68822;BME280;55834;50.870;4.606;2023-02-26T11:34:47;101769.09;;;1.88;36.37
68822;BME280;55834;50.870;4.606;2023-02-26T11:37:18;101785.44;;;1.47;37.24
68822;BME280;55834;50.870;4.606;2023-02-26T11:39:55;101781.31;;;1.90;36.76
68822;BME280;55834;50.870;4.606;2023-02-26T11:42:25;101776.03;;;1.19;38.69
68822;BME280;55834;50.870;4.606;2023-02-26T11:44:51;101772.34;;;1.77;38.04
68822;BME280;55834;50.870;4.606;2023-02-26T11:47:20;101774.75;;;1.05;37.10
68822;BME280;55834;50.870;4.606;2023-02-26T11:49:53;101788.44;;;0.67;38.13
68822;BME280;55834;50.870;4.606;2023-02-26T11:52:22;101779.13;;;0.45;38.90
68822;BME280;55834;50.870;4.606;2023-02-26T11:54:56;101763.19;;;1.25;37.46
68822;BME280;55834;50.870;4.606;2023-02-26T11:57:25;101773.63;;;1.60;37.61
68822;BME280;55834;50.870;4.606;2023-02-26T11:59:54;101767.28;;;2.23;38.40
68822;BME280;55834;50.870;4.606;2023-02-26T12:02:25;101768.16;;;1.49;35.63
68822;BME280;55834;50.870;4.606;2023-02-26T12:04:56;101767.16;;;2.15;36.60
68822;BME280;55834;50.870;4.606;2023-02-26T12:07:25;101797.91;;;0.37;36.32
68822;BME280;55834;50.870;4.606;2023-02-26T12:09:50;101778.00;;;0.96;37.60
68822;BME280;55834;50.870;4.606;2023-02-26T12:15:27;101761.16;;;1.47;37.75
68822;BME280;55834;50.870;4.606;2023-02-26T12:18:12;101774.97;;;1.12;36.17
68822;BME280;55834;50.870;4.606;2023-02-26T12:26:34;101758.22;;;2.05;36.00
68822;BME280;55834;50.870;4.606;2023-02-26T12:47:41;101787.59;;;0.11;39.57
68822;BME280;55834;50.870;4.606;2023-02-26T12:50:29;101794.25;;;-0.24;40.47
68822;BME280;55834;50.870;4.606;2023-02-26T12:58:50;101767.44;;;0.90;37.77
68822;BME280;55834;50.870;4.606;2023-02-26T13:12:54;101782.13;;;0.59;38.93
68822;BME280;55834;50.870;4.606;2023-02-26T13:18:06;101773.88;;;-0.39;40.05
68822;BME280;55834;50.870;4.606;2023-02-26T13:20:36;101773.69;;;-0.44;40.33
68822;BME280;55834;50.870;4.606;2023-02-26T13:23:16;101781.19;;;-0.26;40.50
68822;BME280;55834;50.870;4.606;2023-02-26T13:25:50;101787.81;;;-0.61;39.44
68822;BME280;55834;50.870;4.606;2023-02-26T13:31:06;101793.00;;;-0.61;39.37
68822;BME280;55834;50.870;4.606;2023-02-26T13:33:33;101777.53;;;-1.07;39.35
68822;BME280;55834;50.870;4.606;2023-02-26T13:36:00;101774.47;;;0.07;38.94
68822;BME280;55834;50.870;4.606;2023-02-26T13:41:18;101770.38;;;0.15;39.06
68822;BME280;55834;50.870;4.606;2023-02-26T13:46:14;101764.78;;;-0.52;36.98
68822;BME280;55834;50.870;4.606;2023-02-26T13:51:36;101760.47;;;0.59;37.28
68822;BME280;55834;50.870;4.606;2023-02-26T14:02:55;101770.47;;;0.75;36.91
68822;BME280;55834;50.870;4.606;2023-02-26T14:16:12;101772.19;;;0.75;35.39
68822;BME280;55834;50.870;4.606;2023-02-26T14:24:00;101772.34;;;0.51;37.55
68822;BME280;55834;50.870;4.606;2023-02-26T14:26:28;101765.44;;;0.51;35.57
68822;BME280;55834;50.870;4.606;2023-02-26T14:29:07;101781.75;;;0.76;36.17
68822;BME280;55834;50.870;4.606;2023-02-26T14:34:25;101782.41;;;-0.16;37.24
68822;BME280;55834;50.870;4.606;2023-02-26T14:36:55;101806.44;;;-0.22;35.97
68822;BME280;55834;50.870;4.606;2023-02-26T14:39:30;101786.72;;;0.11;36.17
68822;BME280;55834;50.870;4.606;2023-02-26T14:42:03;101786.16;;;-0.06;35.55
68822;BME280;55834;50.870;4.606;2023-02-26T14:44:36;101763.00;;;1.18;34.66
68822;BME280;55834;50.870;4.606;2023-02-26T14:47:02;101762.38;;;1.61;34.83
68822;BME280;55834;50.870;4.606;2023-02-26T14:49:36;101769.47;;;0.72;35.64
68822;BME280;55834;50.870;4.606;2023-02-26T15:14:17;101789.38;;;0.12;35.88
68822;BME280;55834;50.870;4.606;2023-02-26T15:22:16;101782.84;;;0.84;34.60
68822;BME280;55834;50.870;4.606;2023-02-26T15:24:44;101779.53;;;1.20;34.86
68822;BME280;55834;50.870;4.606;2023-02-26T15:27:15;101780.09;;;1.76;33.74
68822;BME280;55834;50.870;4.606;2023-02-26T15:29:41;101779.25;;;2.13;32.70
68822;BME280;55834;50.870;4.606;2023-02-26T15:35:17;101786.53;;;1.55;33.51
68822;BME280;55834;50.870;4.606;2023-02-26T15:38:01;101798.63;;;0.90;34.92
68822;BME280;55834;50.870;4.606;2023-02-26T15:40:30;101796.50;;;0.19;36.93
68822;BME280;55834;50.870;4.606;2023-02-26T15:42:58;101796.19;;;0.37;36.87
68822;BME280;55834;50.870;4.606;2023-02-26T15:45:37;101800.91;;;0.22;37.06
68822;BME280;55834;50.870;4.606;2023-02-26T15:48:08;101810.13;;;0.39;35.98
68822;BME280;55834;50.870;4.606;2023-02-26T15:50:39;101809.34;;;1.01;36.88
68822;BME280;55834;50.870;4.606;2023-02-26T15:53:08;101795.91;;;1.49;36.30
68822;BME280;55834;50.870;4.606;2023-02-26T15:55:43;101796.81;;;1.19;36.64
68822;BME280;55834;50.870;4.606;2023-02-26T15:58:18;101789.66;;;2.13;34.92
68822;BME280;55834;50.870;4.606;2023-02-26T16:00:51;101791.59;;;1.86;36.32
68822;BME280;55834;50.870;4.606;2023-02-26T16:03:17;101801.78;;;1.42;36.10
68822;BME280;55834;50.870;4.606;2023-02-26T16:05:42;101795.81;;;2.17;34.48
68822;BME280;55834;50.870;4.606;2023-02-26T16:08:13;101791.00;;;1.96;34.29
68822;BME280;55834;50.870;4.606;2023-02-26T16:10:40;101792.38;;;1.81;34.93
68822;BME280;55834;50.870;4.606;2023-02-26T16:13:12;101802.59;;;1.74;34.64
68822;BME280;55834;50.870;4.606;2023-02-26T16:15:39;101803.72;;;0.58;36.24
68822;BME280;55834;50.870;4.606;2023-02-26T16:18:13;101808.16;;;0.89;36.77